Terminal Aerodrome Forecast
Issued by NWS

Home | Current Version | Previous Version | Text Only | Print | Product List | Glossary On
Versions: 1 2 3 4 5 6 7 8 9 10 11 12 13 14
000
FTUS43 KICT 302300
TAFCNU
TAF
KCNU 302339Z 3100/3124 VRB04KT P6SM SKC
     FM311100 16005KT 4SM BR SCT250
     FM311500 20014KT P6SM SCT250
     FM311800 20017G25KT P6SM SCT150=

USA.gov is the U.S. government's official web portal to all federal, state and local government web resources and services.